Time;durP1;ratioP1;P1;durP2;ratioP2;P2;SDS_P1;SDS_P2;PMS_P1;PMS_P2;Temp;Humidity;BMP_temperature;BMP_pressure;BME280_temperature;BME280_humidity;BME280_pressure;Samples;Min_cycle;Max_cycle;Signal;HPM_P1;HPM_P2
2022/02/11 00:08:28;;;;;;;4.37;3.60;;;;;;;5.84;100.00;100464.63;15275876;19;20144;-48
2022/02/11 00:13:33;;;;;;;3.17;2.70;;;;;;;5.73;100.00;100465.97;15244888;19;20175;-49
2022/02/11 00:18:37;;;;;;;2.97;2.77;;;;;;;5.72;100.00;100479.25;15259973;19;20163;-51
2022/02/11 00:23:42;;;;;;;3.43;3.13;;;;;;;5.66;100.00;100475.09;15275148;19;20214;-51
2022/02/11 00:34:09;;;;;;;3.40;3.10;;;;;;;5.64;100.00;100497.25;15254875;19;20173;-51
2022/02/11 00:39:39;;;;;;;3.40;3.10;;;;;;;5.56;100.00;100508.13;15246948;19;20149;-48
2022/02/11 01:06:09;;;;;;;3.97;2.50;;;;;;;5.58;100.00;100505.44;15271171;19;20815;-49
2022/02/11 01:11:19;;;;;;;3.07;2.63;;;;;;;5.64;100.00;100502.56;15272418;19;20227;-48
2022/02/11 01:16:31;;;;;;;3.20;2.80;;;;;;;5.70;100.00;100507.59;15272434;19;20157;-49
2022/02/11 01:21:43;;;;;;;3.37;3.07;;;;;;;5.73;100.00;100496.88;15239770;19;20145;-50
2022/02/11 01:27:01;;;;;;;4.77;4.33;;;;;;;5.67;100.00;100507.72;15261486;19;20213;-48
2022/02/11 01:32:21;;;;;;;6.50;5.60;;;;;;;5.56;100.00;100509.91;15271160;19;20188;-51
2022/02/11 01:37:37;;;;;;;7.27;6.57;;;;;;;5.40;100.00;100509.69;15270451;19;20181;-50
2022/02/11 01:53:31;;;;;;;7.10;6.50;;;;;;;5.27;100.00;100509.31;15265068;19;20169;-50
2022/02/11 02:04:37;;;;;;;6.70;6.03;;;;;;;5.16;100.00;100514.19;15247517;19;20243;-48
2022/02/11 02:15:22;;;;;;;6.07;5.57;;;;;;;5.04;100.00;100512.00;15265106;19;20216;-51
2022/02/11 02:25:53;;;;;;;6.63;5.97;;;;;;;4.90;100.00;100519.59;15253004;19;20236;-50
2022/02/11 02:36:37;;;;;;;6.83;5.60;;;;;;;4.85;100.00;100505.69;15272644;19;20176;-49
2022/02/11 02:57:52;;;;;;;6.07;5.47;;;;;;;4.38;100.00;100518.00;15278053;19;20171;-49
2022/02/11 03:34:53;;;;;;;7.43;6.20;;;;;;;3.79;100.00;100537.63;15246890;19;20141;-49
2022/02/11 03:51:06;;;;;;;8.17;5.63;;;;;;;4.02;100.00;100543.91;15275084;19;20172;-48
2022/02/11 03:56:49;;;;;;;6.83;5.40;;;;;;;4.15;100.00;100547.88;15254155;19;20215;-48
2022/02/11 04:23:36;;;;;;;7.27;6.57;;;;;;;4.16;100.00;100525.81;15251911;19;20153;-48
2022/02/11 04:55:25;;;;;;;7.10;6.40;;;;;;;4.07;100.00;100537.56;15271319;19;20148;-49
2022/02/11 05:00:29;;;;;;;8.00;6.07;;;;;;;3.86;100.00;100533.88;15267921;19;20570;-48
2022/02/11 05:05:49;;;;;;;7.57;5.97;;;;;;;3.57;100.00;100536.59;15238087;19;20690;-49
2022/02/11 05:10:59;;;;;;;6.10;5.50;;;;;;;3.26;100.00;100548.09;15264594;19;20654;-52
2022/02/11 05:16:03;;;;;;;8.10;6.10;;;;;;;3.06;100.00;100545.22;15268815;19;20223;-48
2022/02/11 05:21:07;;;;;;;8.83;7.03;;;;;;;2.89;100.00;100544.88;15270023;19;20169;-51
2022/02/11 05:26:12;;;;;;;11.67;8.63;;;;;;;2.77;100.00;100558.41;15245361;19;20151;-50
2022/02/11 05:31:16;;;;;;;11.20;9.80;;;;;;;2.66;100.00;100556.03;15253986;19;20256;-49
2022/02/11 05:36:21;;;;;;;10.20;8.63;;;;;;;2.52;100.00;100542.41;15266450;19;20948;-50
2022/02/11 05:41:25;;;;;;;11.03;9.03;;;;;;;2.36;100.00;100552.50;15267772;19;20700;-49
2022/02/11 05:46:30;;;;;;;14.10;10.53;;;;;;;2.28;100.00;100558.88;15258934;19;20811;-49
2022/02/11 05:51:34;;;;;;;10.03;8.17;;;;;;;2.36;100.00;100559.53;15239186;19;20234;-51
2022/02/11 05:56:39;;;;;;;12.07;8.80;;;;;;;2.64;100.00;100557.88;15268225;19;20152;-48
2022/02/11 06:01:43;;;;;;;11.60;9.33;;;;;;;2.97;100.00;100566.59;15268754;19;20178;-50
2022/02/11 06:06:48;;;;;;;10.60;8.60;;;;;;;3.25;100.00;100572.78;15268864;19;20158;-51
2022/02/11 06:11:54;;;;;;;13.87;9.10;;;;;;;3.50;100.00;100572.03;15245929;19;20192;-49
2022/02/11 06:16:59;;;;;;;13.00;9.50;;;;;;;3.72;100.00;100562.50;15272041;19;20157;-51
2022/02/11 06:22:03;;;;;;;12.17;9.53;;;;;;;3.88;100.00;100554.94;15274738;19;20472;-50
2022/02/11 06:27:08;;;;;;;12.10;9.07;;;;;;;3.92;100.00;100570.63;15282422;19;20178;-50
2022/02/11 06:32:12;;;;;;;9.40;7.87;;;;;;;4.03;100.00;100569.41;15264366;19;20188;-50
2022/02/11 06:37:17;;;;;;;9.93;8.23;;;;;;;4.28;100.00;100570.31;15257456;19;20164;-50
2022/02/11 06:42:22;;;;;;;11.40;8.83;;;;;;;4.54;100.00;100577.31;15283310;19;20156;-49
2022/02/11 06:47:26;;;;;;;10.10;8.43;;;;;;;4.77;100.00;100572.06;15283566;19;20223;-51
2022/02/11 06:52:31;;;;;;;10.03;8.33;;;;;;;5.07;100.00;100581.50;15275795;19;20197;-49
2022/02/11 06:57:35;;;;;;;12.00;8.80;;;;;;;5.26;100.00;100583.47;15249573;19;20206;-52
2022/02/11 07:02:40;;;;;;;9.77;8.77;;;;;;;5.43;100.00;100595.09;15275835;19;20185;-50
2022/02/11 07:07:45;;;;;;;9.77;8.73;;;;;;;5.51;100.00;100597.47;15280909;19;20144;-49
2022/02/11 07:12:49;;;;;;;10.27;8.90;;;;;;;5.65;100.00;100599.59;15283559;19;20137;-51
2022/02/11 07:17:54;;;;;;;10.13;9.13;;;;;;;5.70;100.00;100602.91;15263543;19;20145;-51
2022/02/11 07:22:58;;;;;;;10.13;8.87;;;;;;;5.82;100.00;100607.69;15267305;19;20608;-52
2022/02/11 07:28:03;;;;;;;11.03;8.53;;;;;;;5.96;100.00;100610.69;15284224;19;20159;-49
2022/02/11 07:33:07;;;;;;;10.27;9.27;;;;;;;6.03;100.00;100612.19;15281708;19;20234;-51
2022/02/11 07:38:12;;;;;;;10.90;9.43;;;;;;;5.97;100.00;100612.41;15277390;19;20145;-51
2022/02/11 07:43:16;;;;;;;10.50;9.07;;;;;;;6.02;100.00;100606.94;15259011;19;21128;-50
2022/02/11 07:48:41;;;;;;;10.57;9.40;;;;;;;6.09;100.00;100608.41;15279866;19;20155;-53
2022/02/11 07:53:45;;;;;;;11.43;9.67;;;;;;;6.19;100.00;100606.22;15278073;19;20237;-51
2022/02/11 07:58:51;;;;;;;10.50;9.40;;;;;;;6.05;100.00;100601.50;15281844;19;20204;-52
2022/02/11 08:03:56;;;;;;;14.73;12.00;;;;;;;5.96;100.00;100594.81;15254726;19;20154;-52
2022/02/11 08:09:00;;;;;;;15.80;11.30;;;;;;;6.04;100.00;100597.13;15270277;19;20163;-51
2022/02/11 08:14:05;;;;;;;13.40;10.57;;;;;;;6.29;100.00;100596.97;15280989;19;20142;-50
2022/02/11 08:19:10;;;;;;;12.97;10.10;;;;;;;6.48;100.00;100608.53;15280191;19;20507;-52
2022/02/11 08:24:15;;;;;;;10.87;9.67;;;;;;;6.64;100.00;100608.75;15265068;19;20618;-49
2022/02/11 08:29:25;;;;;;;11.83;10.10;;;;;;;6.82;100.00;100614.09;15256479;19;20641;-51
2022/02/11 08:34:29;;;;;;;10.60;9.50;;;;;;;7.19;100.00;100615.09;15276664;19;20142;-51
2022/02/11 08:39:38;;;;;;;12.17;10.20;;;;;;;7.64;100.00;100619.19;15279119;19;20621;-49
2022/02/11 08:44:43;;;;;;;12.67;9.87;;;;;;;7.95;100.00;100612.34;15275465;19;20491;-50
2022/02/11 08:49:47;;;;;;;11.33;9.90;;;;;;;8.20;100.00;100608.47;15252267;19;20155;-49
2022/02/11 08:54:52;;;;;;;12.20;10.90;;;;;;;8.30;100.00;100599.97;15265198;19;20163;-51
2022/02/11 08:59:57;;;;;;;12.73;11.40;;;;;;;8.27;100.00;100597.44;15276884;19;20169;-50
2022/02/11 09:05:02;;;;;;;11.17;10.07;;;;;;;8.37;100.00;100594.34;15276618;19;20173;-47
2022/02/11 09:10:07;;;;;;;11.60;10.40;;;;;;;8.46;100.00;100599.19;15256320;19;20149;-48
2022/02/11 09:15:15;;;;;;;11.53;10.50;;;;;;;8.69;100.00;100596.22;15256355;19;20187;-46
2022/02/11 09:20:20;;;;;;;11.00;9.90;;;;;;;8.95;100.00;100601.03;15275248;19;20662;-48
2022/02/11 09:25:26;;;;;;;11.50;10.03;;;;;;;9.22;100.00;100601.34;15274892;19;20263;-48
2022/02/11 09:30:31;;;;;;;11.30;10.20;;;;;;;9.43;100.00;100609.09;15268316;19;20233;-50
2022/02/11 09:35:36;;;;;;;11.90;10.70;;;;;;;9.50;100.00;100610.50;15248443;19;20156;-50
2022/02/11 09:40:44;;;;;;;11.80;10.60;;;;;;;9.41;100.00;100611.03;15270577;19;20152;-50
2022/02/11 09:45:49;;;;;;;12.70;11.40;;;;;;;9.36;100.00;100611.25;15282079;19;20153;-47
2022/02/11 09:50:55;;;;;;;11.33;10.23;;;;;;;9.36;100.00;100608.59;15289120;19;20180;-51
2022/02/11 09:56:01;;;;;;;11.23;10.23;;;;;;;9.35;100.00;100601.53;15261682;19;20140;-49
2022/02/11 10:01:11;;;;;;;12.07;10.83;;;;;;;9.32;100.00;100599.03;15275996;19;20496;-51
2022/02/11 10:06:14;;;;;;;10.90;9.90;;;;;;;9.23;100.00;100587.09;15289861;19;20152;-50
2022/02/11 10:11:20;;;;;;;10.50;9.47;;;;;;;9.23;100.00;100591.56;15289450;19;20153;-51
2022/02/11 10:16:27;;;;;;;9.93;8.93;;;;;;;9.22;100.00;100595.16;15269626;19;20261;-51
2022/02/11 10:21:35;;;;;;;9.97;8.97;;;;;;;9.32;100.00;100596.38;15264033;19;20163;-49
2022/02/11 10:26:41;;;;;;;9.60;7.87;;;;;;;9.39;100.00;100592.44;15288163;19;20153;-51
2022/02/11 10:31:48;;;;;;;9.30;8.47;;;;;;;9.25;100.00;100589.69;15286736;19;20251;-48
2022/02/11 10:36:53;;;;;;;8.40;7.53;;;;;;;9.12;100.00;100583.31;15281271;19;20156;-51
2022/02/11 10:42:12;;;;;;;5.43;4.93;;;;;;;8.91;100.00;100595.97;15257958;19;20646;-52
2022/02/11 10:47:18;;;;;;;6.40;5.03;;;;;;;8.57;100.00;100596.88;15276744;19;20152;-49
2022/02/11 10:52:24;;;;;;;4.57;3.87;;;;;;;8.05;100.00;100598.59;15282432;19;20173;-49
2022/02/11 10:57:31;;;;;;;9.47;6.77;;;;;;;6.68;100.00;100610.31;15277950;19;20145;-51
2022/02/11 11:02:36;;;;;;;8.63;7.57;;;;;;;5.99;100.00;100605.28;15263529;19;20166;-50
2022/02/11 11:07:45;;;;;;;9.50;7.30;;;;;;;5.56;100.00;100610.50;15266176;19;20621;-49
2022/02/11 11:12:57;;;;;;;6.40;5.80;;;;;;;5.38;100.00;100597.09;15283109;19;20150;-49
2022/02/11 11:18:05;;;;;;;7.17;5.50;;;;;;;5.34;100.00;100595.47;15285346;19;20629;-50
2022/02/11 11:23:29;;;;;;;5.90;5.07;;;;;;;5.42;100.00;100601.34;15271982;19;20173;-50
2022/02/11 11:28:51;;;;;;;6.00;4.37;;;;;;;5.41;100.00;100596.97;15256213;19;20254;-50
2022/02/11 11:34:20;;;;;;;4.97;4.43;;;;;;;5.42;100.00;100593.41;15280636;19;20185;-50
2022/02/11 11:39:24;;;;;;;4.00;3.60;;;;;;;5.51;100.00;100586.88;15281545;19;20914;-49
2022/02/11 11:44:28;;;;;;;3.63;3.03;;;;;;;5.58;100.00;100582.19;15276820;19;20222;-49
2022/02/11 11:49:44;;;;;;;2.80;2.27;;;;;;;5.70;100.00;100572.00;15254270;19;20748;-49
2022/02/11 11:54:49;;;;;;;2.93;2.50;;;;;;;5.63;100.00;100588.19;15269974;19;20504;-51
2022/02/11 11:59:58;;;;;;;2.80;2.60;;;;;;;5.41;100.00;100586.38;15280260;19;20153;-50
2022/02/11 12:05:04;;;;;;;3.40;2.70;;;;;;;5.35;100.00;100585.75;15280556;19;20168;-49
2022/02/11 12:10:11;;;;;;;4.37;3.87;;;;;;;5.29;100.00;100586.88;15256725;19;20149;-53
2022/02/11 12:15:17;;;;;;;3.93;3.57;;;;;;;5.28;100.00;100585.13;15263090;19;20201;-49
2022/02/11 12:20:23;;;;;;;6.27;4.37;;;;;;;5.17;100.00;100579.41;15281378;19;20149;-51
2022/02/11 12:30:45;;;;;;;3.20;3.00;;;;;;;5.14;100.00;100579.50;15267862;19;20136;-49
2022/02/11 12:35:51;;;;;;;3.93;3.17;;;;;;;5.08;100.00;100566.50;15251628;19;20275;-51
2022/02/11 12:40:56;;;;;;;3.27;2.97;;;;;;;5.05;100.00;100582.50;15272871;19;20157;-49
2022/02/11 12:46:03;;;;;;;4.40;4.00;;;;;;;5.00;100.00;100584.44;15278075;19;20137;-48
2022/02/11 12:51:10;;;;;;;5.40;4.90;;;;;;;4.98;100.00;100592.44;15277060;19;20197;-50
2022/02/11 12:56:15;;;;;;;5.80;5.27;;;;;;;4.81;100.00;100591.34;15247791;19;20144;-50
2022/02/11 13:01:32;;;;;;;6.70;6.10;;;;;;;4.64;100.00;100591.94;15265754;19;20644;-50
2022/02/11 13:06:37;;;;;;;7.27;6.57;;;;;;;4.59;100.00;100589.44;15277110;19;20246;-51
2022/02/11 13:11:45;;;;;;;7.10;6.40;;;;;;;4.67;100.00;100587.41;15275995;19;20177;-50
2022/02/11 13:16:50;;;;;;;7.57;6.87;;;;;;;4.61;100.00;100592.91;15253110;19;20170;-48
2022/02/11 13:21:54;;;;;;;6.87;6.27;;;;;;;4.62;100.00;100599.91;15254929;19;20149;-51
2022/02/11 13:27:00;;;;;;;6.70;6.10;;;;;;;4.56;100.00;100605.44;15276034;19;20148;-52
2022/02/11 13:32:05;;;;;;;6.87;6.17;;;;;;;4.57;100.00;100608.94;15274675;19;20141;-51
2022/02/11 13:37:10;;;;;;;7.43;5.97;;;;;;;4.59;100.00;100618.50;15267872;19;20141;-52
2022/02/11 13:42:18;;;;;;;8.57;7.67;;;;;;;4.57;100.00;100619.50;15249112;19;20152;-52
2022/02/11 13:47:24;;;;;;;7.37;6.73;;;;;;;4.52;100.00;100630.22;15268879;19;20213;-51
2022/02/11 13:57:47;;;;;;;6.67;6.17;;;;;;;4.13;100.00;100650.03;15268099;19;20166;-49
2022/02/11 14:02:51;;;;;;;8.60;7.60;;;;;;;4.09;100.00;100656.34;15248428;19;20902;-52
2022/02/11 14:07:57;;;;;;;8.87;7.67;;;;;;;3.98;100.00;100668.09;15259326;19;20228;-50
2022/02/11 14:13:11;;;;;;;13.67;10.90;;;;;;;3.89;100.00;100664.91;15271772;19;20788;-53
2022/02/11 14:18:16;;;;;;;10.60;9.00;;;;;;;3.84;100.00;100678.25;15268780;19;20236;-49
2022/02/11 14:23:22;;;;;;;7.97;7.23;;;;;;;3.58;100.00;100684.31;15260211;19;20165;-51
2022/02/11 14:28:29;;;;;;;6.47;5.87;;;;;;;3.04;100.00;100699.94;15248728;19;20145;-50
2022/02/11 14:33:34;;;;;;;8.27;7.33;;;;;;;2.68;100.00;100707.06;15283231;19;20226;-50
2022/02/11 14:38:38;;;;;;;14.07;9.50;;;;;;;2.28;100.00;100723.00;15280993;19;20151;-50
2022/02/11 14:43:43;;;;;;;19.37;9.23;;;;;;;1.62;100.00;100726.25;15283782;19;20146;-49
2022/02/11 14:48:48;;;;;;;9.47;6.90;;;;;;;1.48;100.00;100709.88;15255135;19;20149;-49
2022/02/11 14:53:53;;;;;;;11.40;8.97;;;;;;;1.43;100.00;100714.38;15268522;19;20197;-49
2022/02/11 14:58:57;;;;;;;12.57;7.60;;;;;;;1.41;100.00;100705.66;15275401;19;20163;-49
2022/02/11 15:04:01;;;;;;;12.73;7.50;;;;;;;1.46;100.00;100716.94;15276322;19;20799;-49
2022/02/11 15:09:08;;;;;;;8.83;6.47;;;;;;;1.53;100.00;100710.66;15252725;19;20861;-50
2022/02/11 15:14:13;;;;;;;11.40;7.70;;;;;;;1.62;100.00;100720.97;15253343;19;20153;-48
2022/02/11 15:19:17;;;;;;;10.70;7.43;;;;;;;1.71;100.00;100731.31;15272983;19;20945;-47
2022/02/11 15:24:22;;;;;;;12.33;8.10;;;;;;;1.81;100.00;100738.09;15276677;19;20194;-51
2022/02/11 15:29:27;;;;;;;12.17;8.17;;;;;;;2.04;100.00;100740.25;15269678;19;20221;-49
2022/02/11 15:34:31;;;;;;;13.20;8.27;;;;;;;2.23;100.00;100745.06;15249572;19;20173;-49
2022/02/11 15:39:36;;;;;;;12.73;7.70;;;;;;;2.44;100.00;100758.59;15267251;19;20153;-48
2022/02/11 15:44:41;;;;;;;11.90;8.33;;;;;;;2.47;100.00;100765.56;15273022;19;20175;-49
2022/02/11 15:49:45;;;;;;;12.87;7.20;;;;;;;2.45;100.00;100762.94;15272149;19;20167;-51
2022/02/11 15:54:50;;;;;;;18.57;9.50;;;;;;;2.41;100.00;100771.84;15247232;19;20189;-50
2022/02/11 15:59:57;;;;;;;16.23;10.40;;;;;;;2.41;100.00;100781.50;15260416;19;20208;-50
2022/02/11 16:05:01;;;;;;;17.30;11.50;;;;;;;2.40;100.00;100796.44;15270558;19;20179;-48
2022/02/11 16:10:07;;;;;;;23.47;12.10;;;;;;;2.46;100.00;100800.69;15271048;19;20147;-48
2022/02/11 16:15:14;;;;;;;26.00;16.27;;;;;;;2.46;100.00;100800.69;15260346;19;20185;-49
2022/02/11 16:20:22;;;;;;;24.40;16.67;;;;;;;2.47;100.00;100828.78;15249586;19;20138;-50
2022/02/11 16:25:27;;;;;;;27.13;19.07;;;;;;;2.48;100.00;100826.09;15273756;19;20267;-50
2022/02/11 16:30:31;;;;;;;27.50;18.47;;;;;;;2.43;100.00;100835.88;15273985;19;20175;-48
2022/02/11 16:35:38;;;;;;;20.70;15.33;;;;;;;2.39;100.00;100841.25;15273638;19;20178;-49
2022/02/11 16:40:43;;;;;;;24.50;16.60;;;;;;;2.35;100.00;100852.75;15248714;19;20150;-48
2022/02/11 16:45:49;;;;;;;22.07;15.60;;;;;;;2.29;100.00;100845.88;15263641;19;20170;-48
2022/02/11 16:50:53;;;;;;;24.53;16.53;;;;;;;2.30;100.00;100858.09;15274810;19;20174;-50
2022/02/11 16:55:58;;;;;;;27.53;18.33;;;;;;;2.31;100.00;100854.56;15268458;19;20154;-47
2022/02/11 17:01:04;;;;;;;30.37;18.80;;;;;;;2.34;100.00;100858.91;15249843;19;20149;-50
2022/02/11 17:06:10;;;;;;;31.17;19.00;;;;;;;2.39;100.00;100868.47;15250728;19;20175;-50
2022/02/11 17:11:16;;;;;;;27.97;18.53;;;;;;;2.39;100.00;100879.00;15267101;19;20142;-50
2022/02/11 17:16:20;;;;;;;36.03;19.87;;;;;;;2.39;100.00;100905.34;15266716;19;20145;-50
2022/02/11 17:21:25;;;;;;;32.73;19.23;;;;;;;2.35;100.00;100903.66;15263510;19;20176;-51
2022/02/11 17:26:33;;;;;;;36.80;20.67;;;;;;;2.38;100.00;100914.13;15233744;19;21180;-51
2022/02/11 17:31:39;;;;;;;33.90;20.97;;;;;;;2.41;100.00;100908.81;15259493;19;20182;-50
2022/02/11 17:36:44;;;;;;;34.70;21.67;;;;;;;2.45;100.00;100923.63;15265255;19;20153;-50
2022/02/11 17:41:49;;;;;;;36.97;21.87;;;;;;;2.48;100.00;100933.22;15262726;19;20164;-50
2022/02/11 17:46:54;;;;;;;35.20;20.73;;;;;;;2.55;100.00;100948.00;15235786;19;20174;-49
2022/02/11 17:51:59;;;;;;;29.73;15.43;;;;;;;2.57;100.00;100947.97;15243639;19;20191;-53
2022/02/11 17:57:03;;;;;;;21.73;13.40;;;;;;;2.59;100.00;100954.06;15267838;19;20222;-52
2022/02/11 18:02:08;;;;;;;27.67;15.67;;;;;;;2.57;100.00;100963.78;15266550;19;20222;-53
2022/02/11 18:07:17;;;;;;;32.60;17.77;;;;;;;2.57;100.00;100962.00;15266127;19;20175;-50
2022/02/11 18:12:24;;;;;;;33.03;21.00;;;;;;;2.50;100.00;100966.56;15264970;19;20174;-52
2022/02/11 18:17:30;;;;;;;35.63;21.03;;;;;;;2.48;100.00;100978.88;15281929;19;20308;-50
2022/02/11 18:22:35;;;;;;;34.60;20.03;;;;;;;2.38;100.00;100969.44;15274693;19;20648;-53
2022/02/11 18:27:40;;;;;;;39.60;23.40;;;;;;;2.40;100.00;100986.09;15263764;19;20162;-54
2022/02/11 18:32:45;;;;;;;37.07;22.47;;;;;;;2.35;100.00;100987.94;15258148;19;20151;-51
2022/02/11 18:37:50;;;;;;;45.00;26.93;;;;;;;2.31;100.00;100991.50;15271123;19;20600;-50
2022/02/11 18:42:55;;;;;;;45.20;27.57;;;;;;;2.36;100.00;101000.19;15285379;19;20416;-52
2022/02/11 18:47:59;;;;;;;45.80;26.97;;;;;;;2.40;100.00;101001.00;15285672;19;20154;-51
2022/02/11 18:53:04;;;;;;;43.73;27.70;;;;;;;2.44;100.00;101003.53;15265247;19;20182;-53
2022/02/11 18:58:11;;;;;;;46.80;26.53;;;;;;;2.53;100.00;101019.19;15258336;19;20158;-49
2022/02/11 19:03:15;;;;;;;46.07;27.73;;;;;;;2.56;100.00;101023.50;15273786;19;20143;-52
2022/02/11 19:08:20;;;;;;;43.17;27.10;;;;;;;2.58;100.00;101018.19;15275994;19;20818;-52
2022/02/11 19:13:25;;;;;;;40.73;25.07;;;;;;;2.60;100.00;101024.31;15270949;19;20662;-51
2022/02/11 19:18:29;;;;;;;39.07;24.23;;;;;;;2.62;100.00;101011.97;15241150;19;20152;-51
2022/02/11 19:23:34;;;;;;;38.33;23.73;;;;;;;2.61;100.00;101031.31;15264619;19;20146;-50
2022/02/11 19:28:39;;;;;;;42.43;24.63;;;;;;;2.49;100.00;101017.50;15269698;19;20143;-49
2022/02/11 19:33:44;;;;;;;36.20;21.53;;;;;;;2.30;100.00;101031.91;15271341;19;20514;-51
2022/02/11 19:38:49;;;;;;;35.87;20.17;;;;;;;2.12;100.00;101034.91;15244498;19;20147;-51
2022/02/11 19:43:55;;;;;;;34.13;20.07;;;;;;;1.99;100.00;101030.75;15257693;19;20150;-49
2022/02/11 19:49:00;;;;;;;35.77;20.30;;;;;;;2.04;100.00;101026.28;15264361;19;20231;-49
2022/02/11 19:54:04;;;;;;;34.97;19.00;;;;;;;2.19;100.00;101039.13;15263114;19;20193;-50
2022/02/11 19:59:09;;;;;;;29.67;19.43;;;;;;;2.34;100.00;101038.88;15253261;19;20232;-50
2022/02/11 20:04:13;;;;;;;37.13;19.67;;;;;;;2.46;100.00;101051.78;15243118;19;20145;-51
2022/02/11 20:09:20;;;;;;;31.43;18.87;;;;;;;2.57;100.00;101053.34;15269534;19;20159;-50
2022/02/11 20:14:27;;;;;;;35.10;20.17;;;;;;;2.62;100.00;101077.84;15271743;19;20205;-52
2022/02/11 20:19:33;;;;;;;30.37;18.33;;;;;;;2.64;100.00;101068.16;15264565;19;20143;-50
2022/02/11 20:24:38;;;;;;;28.60;17.70;;;;;;;2.71;100.00;101080.28;15236970;19;20154;-50
2022/02/11 20:29:43;;;;;;;25.20;16.97;;;;;;;2.80;100.00;101080.97;15255660;19;20246;-50
2022/02/11 20:34:48;;;;;;;29.53;17.93;;;;;;;2.81;100.00;101087.13;15262831;19;20156;-53
2022/02/11 20:39:53;;;;;;;27.93;18.23;;;;;;;2.87;100.00;101098.41;15262884;19;20636;-50
2022/02/11 20:44:57;;;;;;;25.23;18.37;;;;;;;2.96;100.00;101097.34;15246887;19;20159;-49
2022/02/11 20:55:19;;;;;;;25.00;17.43;;;;;;;3.03;100.00;101098.94;15260864;19;20260;-48
2022/02/11 21:00:23;;;;;;;27.20;17.87;;;;;;;3.00;100.00;101100.81;15261421;19;20611;-50
2022/02/11 21:05:28;;;;;;;23.73;17.30;;;;;;;3.04;100.00;101110.38;15261197;19;20444;-50
2022/02/11 21:10:33;;;;;;;22.77;17.47;;;;;;;3.06;100.00;101119.97;15239916;19;20145;-50
2022/02/11 21:15:38;;;;;;;23.63;18.17;;;;;;;3.07;100.00;101099.75;15257842;19;20163;-53
2022/02/11 21:20:42;;;;;;;28.43;19.63;;;;;;;3.09;100.00;101122.56;15261076;19;20162;-48
2022/02/11 21:25:47;;;;;;;20.83;17.40;;;;;;;3.06;100.00;101111.22;15259744;19;20907;-47
2022/02/11 21:30:51;;;;;;;23.80;17.83;;;;;;;3.04;100.00;101121.78;15238741;19;20156;-52
2022/02/11 21:35:56;;;;;;;25.27;17.23;;;;;;;3.01;100.00;101121.88;15250111;19;20155;-49
2022/02/11 21:41:01;;;;;;;21.40;16.13;;;;;;;3.04;100.00;101111.22;15268922;19;20140;-52
2022/02/11 21:46:06;;;;;;;24.00;15.80;;;;;;;3.04;100.00;101111.22;15282207;19;20160;-49
2022/02/11 21:51:11;;;;;;;19.10;15.47;;;;;;;3.01;100.00;101119.22;15263494;19;20158;-47
2022/02/11 21:56:15;;;;;;;21.33;15.60;;;;;;;3.04;100.00;101111.22;15252810;19;20178;-52
2022/02/11 22:01:20;;;;;;;19.70;14.77;;;;;;;2.93;100.00;101092.13;15281337;19;20151;-48
2022/02/11 22:06:25;;;;;;;25.30;15.60;;;;;;;2.86;100.00;101120.41;15276273;19;20163;-47
2022/02/11 22:11:30;;;;;;;22.30;15.70;;;;;;;2.80;100.00;101131.03;15279705;19;20167;-51
2022/02/11 22:16:37;;;;;;;23.53;17.57;;;;;;;2.66;100.00;101150.66;15252146;19;20982;-48
2022/02/11 22:21:44;;;;;;;26.03;18.70;;;;;;;2.57;100.00;101142.94;15273178;19;20151;-49
2022/02/11 22:26:48;;;;;;;28.63;19.00;;;;;;;2.57;100.00;101158.72;15283864;19;20730;-47
2022/02/11 22:31:53;;;;;;;27.33;18.47;;;;;;;2.53;100.00;101169.34;15283025;19;20158;-49
2022/02/11 22:36:57;;;;;;;26.93;17.60;;;;;;;2.56;100.00;101172.78;15261329;19;20164;-49
2022/02/11 22:42:20;;;;;;;21.30;14.83;;;;;;;2.59;100.00;101171.00;15265094;19;20245;-47
2022/02/11 22:47:24;;;;;;;17.30;11.83;;;;;;;2.44;100.00;101187.94;15286041;19;20209;-46
2022/02/11 22:57:47;;;;;;;12.37;9.73;;;;;;;2.39;100.00;101210.84;15274144;19;20150;-51
2022/02/11 23:02:51;;;;;;;13.30;9.63;;;;;;;2.42;100.00;101217.81;15255867;19;20189;-48
2022/02/11 23:07:56;;;;;;;11.50;8.97;;;;;;;2.41;100.00;101219.59;15278481;19;20161;-47
2022/02/11 23:13:00;;;;;;;12.20;8.87;;;;;;;2.28;100.00;101227.72;15283385;19;20977;-48
2022/02/11 23:18:05;;;;;;;14.63;9.40;;;;;;;2.01;100.00;101229.00;15280540;19;20156;-50
2022/02/11 23:23:09;;;;;;;14.37;9.50;;;;;;;1.84;100.00;101246.78;15253575;19;20149;-49
2022/02/11 23:28:14;;;;;;;13.67;8.83;;;;;;;1.79;100.00;101249.50;15267697;19;20150;-49
2022/02/11 23:33:19;;;;;;;20.27;8.60;;;;;;;1.86;100.00;101271.34;15281543;19;20533;-51
2022/02/11 23:38:23;;;;;;;13.47;9.20;;;;;;;2.00;100.00;101269.38;15278750;19;20230;-50
2022/02/11 23:43:28;;;;;;;12.50;8.27;;;;;;;2.11;100.00;101289.41;15266409;19;20178;-48
2022/02/11 23:48:37;;;;;;;10.67;7.80;;;;;;;2.13;100.00;101292.03;15254049;19;20145;-50
2022/02/11 23:53:41;;;;;;;12.93;8.30;;;;;;;2.16;100.00;101299.88;15276586;19;20181;-49
2022/02/11 23:58:46;;;;;;;10.10;7.60;;;;;;;2.10;100.00;101298.19;15277847;19;20269;-50
